createdAt,value
2023-03-26T00:02:14.113Z,3.30
2023-03-26T00:04:42.854Z,2.30
2023-03-26T00:07:13.009Z,3.50
2023-03-26T00:09:41.680Z,2.80
2023-03-26T00:12:12.004Z,3.10
2023-03-26T00:14:41.100Z,2.50
2023-03-26T00:17:09.799Z,3.30
2023-03-26T00:19:41.020Z,2.50
2023-03-26T00:22:13.730Z,4.00
2023-03-26T00:24:46.067Z,3.40
2023-03-26T00:27:20.697Z,2.70
2023-03-26T00:29:49.382Z,3.70
2023-03-26T00:32:17.870Z,2.50
2023-03-26T00:34:46.370Z,2.70
2023-03-26T00:37:15.447Z,3.70
2023-03-26T00:39:49.453Z,3.20
2023-03-26T00:42:18.291Z,3.10
2023-03-26T00:44:46.923Z,3.80
2023-03-26T00:47:16.217Z,3.00
2023-03-26T00:49:47.065Z,4.40
2023-03-26T00:52:23.602Z,2.90
2023-03-26T00:54:56.614Z,4.20
2023-03-26T00:57:36.002Z,3.40
2023-03-26T01:00:10.077Z,2.90
2023-03-26T01:02:41.651Z,3.70
2023-03-26T01:05:35.579Z,3.40
2023-03-26T01:08:46.795Z,2.90
2023-03-26T01:11:16.466Z,3.30
2023-03-26T01:13:48.485Z,3.90
2023-03-26T01:16:37.281Z,4.10
2023-03-26T01:19:13.103Z,3.60
2023-03-26T01:21:41.829Z,3.20
2023-03-26T01:24:10.442Z,3.40
2023-03-26T01:27:00.103Z,2.90
2023-03-26T01:29:49.074Z,3.10
2023-03-26T01:32:37.942Z,3.40
2023-03-26T01:35:15.489Z,3.50
2023-03-26T01:38:18.609Z,2.30
2023-03-26T01:40:49.777Z,3.00
2023-03-26T01:43:36.276Z,3.70
2023-03-26T01:46:07.066Z,2.30
2023-03-26T01:48:40.521Z,4.40
2023-03-26T01:51:09.888Z,3.90
2023-03-26T01:53:46.243Z,6.10
2023-03-26T01:56:39.396Z,4.20
2023-03-26T01:59:23.215Z,3.20
2023-03-26T02:02:43.383Z,4.90
2023-03-26T02:05:31.482Z,3.00
2023-03-26T02:08:09.887Z,3.60
2023-03-26T02:10:46.009Z,4.20
2023-03-26T02:13:16.229Z,3.30
2023-03-26T02:15:56.526Z,4.30
2023-03-26T02:18:25.476Z,5.60
2023-03-26T02:20:53.802Z,4.10
2023-03-26T02:23:22.573Z,3.70
2023-03-26T02:25:51.262Z,2.50
2023-03-26T02:28:22.673Z,4.00
2023-03-26T02:30:51.295Z,3.40
2023-03-26T02:33:21.785Z,2.40
2023-03-26T02:35:50.427Z,4.40
2023-03-26T02:38:20.988Z,1.70
2023-03-26T02:40:52.747Z,3.30
2023-03-26T02:43:22.322Z,2.50
2023-03-26T02:45:50.977Z,2.60
2023-03-26T02:48:41.560Z,2.50
2023-03-26T02:51:18.506Z,1.90
2023-03-26T02:54:16.318Z,2.80
2023-03-26T02:57:10.650Z,2.20
2023-03-26T02:59:39.140Z,1.70
2023-03-26T03:02:29.556Z,2.30
2023-03-26T03:05:06.060Z,2.80
2023-03-26T03:07:46.707Z,4.20
2023-03-26T03:10:22.024Z,2.40
2023-03-26T03:12:59.597Z,3.40
2023-03-26T03:15:31.366Z,1.90
2023-03-26T03:17:59.601Z,2.10
2023-03-26T03:20:30.526Z,1.90
2023-03-26T03:23:02.036Z,3.90
2023-03-26T03:25:30.721Z,2.70
2023-03-26T03:28:00.824Z,2.00
2023-03-26T03:30:29.407Z,2.00
2023-03-26T03:33:15.531Z,2.70
2023-03-26T03:35:46.110Z,2.60
2023-03-26T03:38:14.914Z,1.70
2023-03-26T03:40:48.389Z,1.80
2023-03-26T03:43:19.242Z,1.50
2023-03-26T03:46:00.046Z,1.90
2023-03-26T03:48:38.361Z,1.50
2023-03-26T03:51:07.598Z,2.40
2023-03-26T03:53:54.022Z,1.70
2023-03-26T03:56:52.503Z,1.70
2023-03-26T03:59:33.507Z,1.20
2023-03-26T04:02:05.032Z,2.20
2023-03-26T04:05:00.246Z,2.00
2023-03-26T04:07:31.311Z,1.80
2023-03-26T04:10:07.018Z,2.80
2023-03-26T04:12:58.543Z,1.70
2023-03-26T04:15:49.565Z,2.70
2023-03-26T04:18:17.905Z,0.90
2023-03-26T04:20:46.915Z,1.30
2023-03-26T04:23:22.678Z,1.10
2023-03-26T04:25:56.729Z,1.70
2023-03-26T04:28:53.526Z,2.30
2023-03-26T04:31:30.899Z,1.50
2023-03-26T04:34:08.458Z,1.20
2023-03-26T04:36:46.521Z,1.00
2023-03-26T04:39:16.528Z,1.10
2023-03-26T04:42:04.001Z,2.10
2023-03-26T04:44:50.863Z,2.00
2023-03-26T04:47:19.467Z,1.00
2023-03-26T04:49:48.868Z,1.30
2023-03-26T04:52:18.250Z,1.40
2023-03-26T04:54:58.902Z,1.30
2023-03-26T04:57:39.092Z,2.40
2023-03-26T05:00:15.510Z,1.10
2023-03-26T05:02:53.524Z,1.40
2023-03-26T05:05:22.313Z,1.40
2023-03-26T05:07:51.592Z,1.80
2023-03-26T05:10:21.229Z,3.00
2023-03-26T05:13:12.572Z,1.70
2023-03-26T05:15:48.802Z,2.80
2023-03-26T05:18:27.978Z,2.30
2023-03-26T05:20:57.612Z,2.50
2023-03-26T05:23:31.287Z,1.80
2023-03-26T05:26:17.540Z,1.70
2023-03-26T05:28:46.137Z,1.60
2023-03-26T05:31:23.815Z,1.60
2023-03-26T05:33:55.329Z,1.60
2023-03-26T05:36:28.661Z,2.00
2023-03-26T05:39:06.251Z,1.60
2023-03-26T05:41:54.729Z,1.80
2023-03-26T05:44:27.894Z,2.40
2023-03-26T05:46:56.982Z,1.90
2023-03-26T05:49:27.922Z,2.30
2023-03-26T05:52:06.332Z,1.60
2023-03-26T05:55:00.731Z,1.60
2023-03-26T05:57:47.834Z,1.10
2023-03-26T06:01:06.417Z,2.00
2023-03-26T06:03:51.747Z,1.30
2023-03-26T06:06:22.364Z,2.80
2023-03-26T06:09:01.674Z,2.40
2023-03-26T06:11:32.119Z,1.50
2023-03-26T06:14:09.156Z,1.60
2023-03-26T06:16:40.717Z,1.20
2023-03-26T06:19:29.622Z,1.80
2023-03-26T06:22:05.708Z,1.20
2023-03-26T06:25:24.101Z,1.40
2023-03-26T06:28:22.095Z,1.80
2023-03-26T06:31:13.742Z,1.10
2023-03-26T06:33:52.410Z,2.30
2023-03-26T06:36:21.813Z,2.90
2023-03-26T06:38:52.246Z,2.70
2023-03-26T06:41:21.535Z,2.20
2023-03-26T06:44:15.820Z,2.60
2023-03-26T06:47:17.092Z,1.40
2023-03-26T06:50:06.448Z,1.60
2023-03-26T06:53:01.952Z,2.30
2023-03-26T06:55:58.399Z,1.90
2023-03-26T06:58:45.606Z,2.60
2023-03-26T07:01:33.684Z,2.40
2023-03-26T07:04:28.677Z,1.80
2023-03-26T07:07:27.333Z,2.10
2023-03-26T07:10:14.983Z,1.90
2023-03-26T07:13:15.086Z,2.10
2023-03-26T07:16:02.737Z,2.00
2023-03-26T07:19:03.957Z,2.80
2023-03-26T07:21:38.582Z,1.80
2023-03-26T07:24:23.036Z,1.70
2023-03-26T07:27:34.830Z,1.80
2023-03-26T07:30:38.026Z,2.30
2023-03-26T07:34:04.669Z,2.40
2023-03-26T07:37:01.932Z,2.70
2023-03-26T07:40:10.767Z,1.50
2023-03-26T07:43:14.041Z,2.10
2023-03-26T07:46:03.119Z,1.90
2023-03-26T07:48:48.288Z,1.60
2023-03-26T07:51:44.839Z,2.40
2023-03-26T07:54:37.249Z,2.10
2023-03-26T07:57:45.730Z,2.30
2023-03-26T08:00:48.250Z,2.30
2023-03-26T08:03:37.071Z,1.90
2023-03-26T08:06:35.432Z,2.90
2023-03-26T08:09:42.672Z,2.50
2023-03-26T08:12:46.372Z,2.40
2023-03-26T08:15:18.479Z,3.10
2023-03-26T08:17:49.870Z,2.20
2023-03-26T08:21:06.498Z,2.10
2023-03-26T08:26:28.034Z,2.10
2023-03-26T08:29:14.530Z,2.70
2023-03-26T08:31:43.058Z,3.60
2023-03-26T08:34:12.001Z,3.20
2023-03-26T08:36:40.485Z,2.80
2023-03-26T08:39:09.481Z,2.10
2023-03-26T08:41:55.159Z,2.00
2023-03-26T08:44:36.167Z,5.10
2023-03-26T08:47:23.277Z,2.70
2023-03-26T08:49:57.234Z,5.10
2023-03-26T08:52:55.735Z,4.40
2023-03-26T08:55:42.836Z,4.30
2023-03-26T08:58:24.644Z,5.00
2023-03-26T09:00:59.064Z,3.70
2023-03-26T09:03:28.708Z,3.70
2023-03-26T09:06:12.614Z,2.70
2023-03-26T09:09:19.271Z,2.20
2023-03-26T09:12:06.815Z,1.70
2023-03-26T09:14:36.110Z,2.40
2023-03-26T09:17:42.293Z,2.00
2023-03-26T09:20:48.647Z,4.00
2023-03-26T09:23:43.442Z,2.80
2023-03-26T09:26:33.633Z,3.40
2023-03-26T09:29:34.468Z,4.00
2023-03-26T09:32:06.738Z,4.20
2023-03-26T09:34:45.563Z,4.10
2023-03-26T09:37:59.407Z,2.70
2023-03-26T09:40:36.813Z,3.70
2023-03-26T09:43:24.356Z,5.30
2023-03-26T09:46:05.858Z,2.70
2023-03-26T09:48:59.650Z,3.40
2023-03-26T09:52:01.041Z,2.40
2023-03-26T09:54:54.800Z,1.40
2023-03-26T09:57:51.564Z,2.40
2023-03-26T10:00:25.690Z,2.40
2023-03-26T10:03:27.127Z,2.40
2023-03-26T10:06:14.853Z,1.30
2023-03-26T10:09:13.117Z,1.30
2023-03-26T10:12:00.846Z,1.20
2023-03-26T10:14:52.057Z,1.70
2023-03-26T10:17:39.007Z,1.80
2023-03-26T10:20:34.342Z,1.60
2023-03-26T10:23:05.116Z,0.80
2023-03-26T10:25:47.471Z,2.10
2023-03-26T10:28:29.604Z,0.70
2023-03-26T10:31:27.331Z,1.80
2023-03-26T10:34:07.188Z,1.00
2023-03-26T10:36:37.254Z,1.30
2023-03-26T10:39:49.966Z,0.70
2023-03-26T10:42:46.395Z,1.10
2023-03-26T10:45:37.783Z,1.50
2023-03-26T10:48:25.553Z,0.50
2023-03-26T10:51:05.277Z,2.00
2023-03-26T10:53:47.336Z,1.30
2023-03-26T10:56:35.637Z,1.30
2023-03-26T10:59:08.923Z,0.60
2023-03-26T11:01:42.343Z,0.80
2023-03-26T11:04:41.395Z,0.60
2023-03-26T11:07:22.727Z,0.80
2023-03-26T11:09:55.688Z,0.20
2023-03-26T11:12:31.725Z,1.00
2023-03-26T11:15:23.716Z,1.50
2023-03-26T11:18:14.982Z,0.60
2023-03-26T11:20:54.245Z,1.10
2023-03-26T11:23:46.176Z,0.60
2023-03-26T11:26:21.246Z,0.90
2023-03-26T11:29:03.813Z,0.80
2023-03-26T11:31:55.056Z,0.60
2023-03-26T11:34:28.510Z,0.30
2023-03-26T11:36:58.022Z,0.80
2023-03-26T11:39:28.501Z,1.00
2023-03-26T11:42:06.545Z,1.00
2023-03-26T11:44:51.926Z,0.60
2023-03-26T11:47:24.188Z,1.10
2023-03-26T11:49:53.401Z,0.90
2023-03-26T11:52:21.815Z,1.00
2023-03-26T11:54:50.872Z,1.20
2023-03-26T11:57:22.890Z,0.80
2023-03-26T12:00:18.322Z,1.10
2023-03-26T12:02:57.654Z,1.60
2023-03-26T12:05:31.622Z,1.20
2023-03-26T12:08:03.567Z,1.90
2023-03-26T12:10:43.022Z,2.10
2023-03-26T12:13:33.942Z,1.70
2023-03-26T12:16:11.819Z,1.00
2023-03-26T12:18:46.890Z,1.60
2023-03-26T12:21:18.345Z,0.90
2023-03-26T12:24:04.656Z,0.80
2023-03-26T12:26:41.692Z,0.60
2023-03-26T12:29:12.476Z,0.90
2023-03-26T12:32:15.357Z,0.70
2023-03-26T12:34:46.299Z,0.40
2023-03-26T12:37:43.555Z,0.60
2023-03-26T12:40:36.135Z,1.40
2023-03-26T12:44:49.091Z,1.60
2023-03-26T12:47:55.325Z,2.00
2023-03-26T12:48:47.998Z,0.90
2023-03-26T12:51:41.904Z,1.20
2023-03-26T12:54:24.554Z,2.80
2023-03-26T12:57:12.601Z,2.00
2023-03-26T13:00:13.278Z,1.50
2023-03-26T13:03:24.119Z,0.80
2023-03-26T13:06:01.312Z,1.80
2023-03-26T13:09:04.329Z,2.80
2023-03-26T13:11:38.267Z,3.70
2023-03-26T13:14:35.778Z,4.30
2023-03-26T13:17:28.848Z,2.90
2023-03-26T13:20:24.751Z,1.10
2023-03-26T13:26:12.543Z,0.50
2023-03-26T13:29:03.129Z,3.20
2023-03-26T13:31:40.213Z,2.60
2023-03-26T13:34:14.735Z,4.30
2023-03-26T13:37:00.635Z,3.90
2023-03-26T13:39:41.697Z,4.30
2023-03-26T13:42:18.480Z,3.50
2023-03-26T13:45:05.168Z,2.40
2023-03-26T13:47:39.100Z,1.60
2023-03-26T13:50:26.104Z,1.90
2023-03-26T13:53:31.148Z,3.10
2023-03-26T13:56:01.189Z,6.50
2023-03-26T13:58:52.672Z,2.10
2023-03-26T14:01:23.425Z,2.60
2023-03-26T14:04:20.047Z,2.70
2023-03-26T14:06:57.358Z,3.40
2023-03-26T14:09:57.526Z,4.00
2023-03-26T14:12:52.242Z,2.80
2023-03-26T14:15:38.777Z,3.10
2023-03-26T14:18:41.736Z,1.90
2023-03-26T14:21:20.725Z,2.00
2023-03-26T14:24:12.488Z,1.80
2023-03-26T14:27:20.496Z,2.70
2023-03-26T14:30:12.502Z,2.70
2023-03-26T14:33:14.942Z,1.60
2023-03-26T14:36:07.893Z,2.10
2023-03-26T14:38:55.076Z,2.40
2023-03-26T14:42:05.636Z,1.80
2023-03-26T14:44:47.659Z,3.20
2023-03-26T14:47:18.598Z,2.20
2023-03-26T14:50:15.947Z,2.70
2023-03-26T14:53:01.369Z,2.20
2023-03-26T14:55:51.100Z,2.90
2023-03-26T14:59:02.339Z,1.90
2023-03-26T15:01:49.051Z,1.60
2023-03-26T15:04:54.648Z,1.10
2023-03-26T15:07:56.954Z,2.40
2023-03-26T15:11:06.449Z,1.00
2023-03-26T15:13:45.160Z,0.70
2023-03-26T15:16:31.926Z,1.20
2023-03-26T15:19:13.054Z,1.00
2023-03-26T15:21:54.330Z,0.60
2023-03-26T15:24:29.260Z,0.30
2023-03-26T15:27:28.958Z,1.00
2023-03-26T15:30:25.954Z,0.70
2023-03-26T15:33:05.515Z,0.90
2023-03-26T15:35:57.737Z,0.60
2023-03-26T15:38:42.855Z,0.70
2023-03-26T15:41:31.506Z,1.60
2023-03-26T15:46:38.416Z,1.10
2023-03-26T15:49:16.661Z,1.00
2023-03-26T15:51:55.375Z,1.70
2023-03-26T15:54:30.161Z,0.50
2023-03-26T15:57:07.471Z,1.20
2023-03-26T15:59:59.523Z,0.80
2023-03-26T16:02:44.475Z,1.50
2023-03-26T16:05:19.665Z,0.80
2023-03-26T16:08:28.615Z,1.30
2023-03-26T16:10:59.699Z,0.90
2023-03-26T16:13:41.023Z,1.40
2023-03-26T16:16:15.686Z,1.40
2023-03-26T16:19:10.238Z,2.00
2023-03-26T16:21:45.998Z,0.90
2023-03-26T16:24:25.867Z,0.60
2023-03-26T16:27:16.130Z,1.50
2023-03-26T16:30:09.718Z,2.90
2023-03-26T16:32:50.608Z,2.80
2023-03-26T16:35:19.143Z,3.30
2023-03-26T16:37:50.921Z,1.40
2023-03-26T16:40:23.759Z,1.60
2023-03-26T16:43:21.656Z,2.20
2023-03-26T16:46:02.895Z,2.10
2023-03-26T16:48:53.123Z,1.90
2023-03-26T16:51:34.202Z,2.80
2023-03-26T16:54:13.584Z,3.20
2023-03-26T16:57:07.235Z,2.90
2023-03-26T17:00:07.734Z,3.80
2023-03-26T17:03:08.195Z,4.00
2023-03-26T17:05:43.397Z,4.30
2023-03-26T17:08:36.047Z,4.40
2023-03-26T17:11:31.152Z,4.40
2023-03-26T17:14:18.980Z,6.30
2023-03-26T17:16:47.782Z,4.80
2023-03-26T17:19:34.370Z,2.40
2023-03-26T17:22:25.070Z,2.60
2023-03-26T17:25:06.453Z,3.50
2023-03-26T17:27:44.246Z,5.50
2023-03-26T17:30:40.172Z,5.40
2023-03-26T17:33:25.461Z,4.30
2023-03-26T17:36:11.490Z,3.30
2023-03-26T17:41:55.481Z,3.90
2023-03-26T17:44:37.518Z,2.20
2023-03-26T17:47:07.440Z,1.60
2023-03-26T17:49:36.609Z,2.30
2023-03-26T17:52:24.931Z,1.80
2023-03-26T17:54:55.772Z,0.90
2023-03-26T17:57:34.091Z,2.10
2023-03-26T18:00:02.538Z,0.40
2023-03-26T18:02:42.543Z,1.30
2023-03-26T18:05:16.567Z,1.20
2023-03-26T18:08:04.157Z,0.50
2023-03-26T18:11:00.384Z,0.20
2023-03-26T18:13:31.848Z,3.10
2023-03-26T18:16:21.524Z,2.70
2023-03-26T18:18:52.662Z,3.30
2023-03-26T18:21:23.436Z,2.50
2023-03-26T18:23:51.897Z,2.40
2023-03-26T18:26:23.078Z,3.30
2023-03-26T18:29:10.782Z,1.80
2023-03-26T18:31:43.456Z,4.10
2023-03-26T18:34:24.703Z,3.90
2023-03-26T18:37:11.442Z,3.30
2023-03-26T18:39:40.660Z,1.60
2023-03-26T18:42:24.857Z,1.00
2023-03-26T18:47:30.561Z,0.20
2023-03-26T18:49:59.022Z,1.60
2023-03-26T18:52:31.404Z,1.50
2023-03-26T18:54:59.652Z,1.40
2023-03-26T18:57:31.021Z,1.10
2023-03-26T19:00:26.184Z,1.60
2023-03-26T19:03:03.860Z,2.70
2023-03-26T19:05:35.327Z,1.70
2023-03-26T19:08:05.549Z,2.40
2023-03-26T19:10:40.063Z,1.40
2023-03-26T19:13:14.764Z,1.10
2023-03-26T19:18:18.716Z,2.30
2023-03-26T19:20:59.762Z,1.60
2023-03-26T19:23:33.188Z,3.10
2023-03-26T19:26:05.794Z,1.90
2023-03-26T19:28:56.267Z,1.80
2023-03-26T19:31:27.398Z,2.30
2023-03-26T19:34:14.156Z,2.60
2023-03-26T19:36:57.744Z,4.00
2023-03-26T19:39:54.582Z,2.80
2023-03-26T19:42:43.955Z,2.20
2023-03-26T19:45:26.358Z,2.90
2023-03-26T19:48:04.046Z,2.50
2023-03-26T19:50:37.435Z,1.90
2023-03-26T19:53:17.843Z,2.00
2023-03-26T19:55:57.940Z,1.70
2023-03-26T19:58:26.847Z,1.60
2023-03-26T20:00:58.169Z,3.20
2023-03-26T20:03:40.677Z,2.30
2023-03-26T20:06:13.179Z,4.00
2023-03-26T20:08:46.785Z,2.90
2023-03-26T20:11:18.862Z,1.70
2023-03-26T20:13:48.858Z,2.40
2023-03-26T20:16:23.530Z,2.10
2023-03-26T20:18:53.857Z,3.00
2023-03-26T20:21:26.492Z,2.30
2023-03-26T20:23:55.173Z,3.20
2023-03-26T20:26:24.164Z,2.30
2023-03-26T20:28:53.968Z,2.20
2023-03-26T20:31:25.395Z,3.10
2023-03-26T20:33:54.148Z,4.00
2023-03-26T20:36:34.058Z,3.50
2023-03-26T20:39:06.142Z,3.30
2023-03-26T20:41:42.006Z,5.40
2023-03-26T20:44:15.902Z,4.30
2023-03-26T20:46:44.485Z,1.90
2023-03-26T20:49:13.132Z,3.40
2023-03-26T20:51:45.773Z,5.00
2023-03-26T20:54:21.976Z,4.80
2023-03-26T20:56:51.130Z,6.40
2023-03-26T20:59:22.400Z,5.80
2023-03-26T21:01:51.412Z,5.40
2023-03-26T21:04:20.479Z,7.20
2023-03-26T21:06:48.904Z,7.50
2023-03-26T21:09:18.999Z,4.90
2023-03-26T21:11:57.030Z,6.60
2023-03-26T21:14:41.922Z,4.30
2023-03-26T21:17:15.821Z,2.20
2023-03-26T21:19:46.081Z,4.20
2023-03-26T21:22:39.342Z,1.70
2023-03-26T21:25:15.376Z,4.40
2023-03-26T21:28:03.732Z,4.10
2023-03-26T21:30:34.309Z,3.50
2023-03-26T21:33:05.501Z,3.20
2023-03-26T21:35:40.731Z,3.90
2023-03-26T21:38:10.052Z,1.80
2023-03-26T21:40:42.296Z,2.40
2023-03-26T21:43:13.231Z,1.80
2023-03-26T21:45:43.163Z,2.70
2023-03-26T21:48:12.987Z,1.80
2023-03-26T21:50:41.906Z,1.50
2023-03-26T21:53:16.887Z,2.40
2023-03-26T21:56:01.096Z,2.40
2023-03-26T21:58:33.324Z,1.50
2023-03-26T22:01:16.941Z,2.00
2023-03-26T22:04:07.652Z,1.90
2023-03-26T22:07:02.861Z,1.30
2023-03-26T22:09:36.480Z,2.60
2023-03-26T22:12:05.553Z,1.40
2023-03-26T22:14:35.573Z,1.00
2023-03-26T22:17:04.666Z,2.90
2023-03-26T22:19:37.036Z,0.90
2023-03-26T22:22:05.822Z,0.20
2023-03-26T22:24:34.454Z,1.10
2023-03-26T22:27:03.208Z,0.80
2023-03-26T22:29:32.944Z,0.50
2023-03-26T22:32:01.437Z,0.70
2023-03-26T22:34:35.134Z,1.10
2023-03-26T22:37:05.650Z,1.20
2023-03-26T22:39:43.636Z,1.10
2023-03-26T22:42:12.130Z,0.60
2023-03-26T22:44:40.924Z,0.60
2023-03-26T22:47:10.665Z,1.00
2023-03-26T22:49:40.120Z,0.60
2023-03-26T22:52:13.799Z,0.60
2023-03-26T22:54:42.897Z,1.80
2023-03-26T22:57:11.252Z,1.30
2023-03-26T22:59:39.946Z,1.20
2023-03-26T23:02:10.073Z,1.10
2023-03-26T23:04:38.852Z,2.40
2023-03-26T23:07:07.782Z,3.00
2023-03-26T23:09:36.845Z,2.80
2023-03-26T23:12:10.032Z,2.70
2023-03-26T23:14:38.719Z,2.60
2023-03-26T23:17:07.919Z,2.70
2023-03-26T23:19:43.454Z,2.90
2023-03-26T23:22:12.709Z,2.50
2023-03-26T23:24:41.634Z,1.50
2023-03-26T23:27:10.942Z,1.80
2023-03-26T23:29:39.317Z,0.60
2023-03-26T23:32:24.263Z,1.00
2023-03-26T23:34:55.977Z,1.80
2023-03-26T23:37:24.206Z,1.50
2023-03-26T23:39:52.864Z,3.20
2023-03-26T23:42:28.787Z,3.20
2023-03-26T23:44:58.160Z,3.00
2023-03-26T23:47:27.259Z,4.30
2023-03-26T23:50:03.047Z,2.40
2023-03-26T23:52:31.978Z,2.80
2023-03-26T23:55:00.206Z,3.10
2023-03-26T23:57:30.756Z,1.60
2023-03-26T23:59:59.844Z,1.90
